createdAt,value
2023-02-19T00:00:45.274Z,996.25
2023-02-19T00:01:45.259Z,996.26
2023-02-19T00:02:45.241Z,996.15
2023-02-19T00:03:45.332Z,996.20
2023-02-19T00:04:45.241Z,996.18
2023-02-19T00:05:45.213Z,996.15
2023-02-19T00:06:45.214Z,996.11
2023-02-19T00:07:45.192Z,996.19
2023-02-19T00:08:45.192Z,996.15
2023-02-19T00:09:45.177Z,996.14
2023-02-19T00:10:45.153Z,996.11
2023-02-19T00:11:45.143Z,996.12
2023-02-19T00:12:45.145Z,996.11
2023-02-19T00:13:45.147Z,996.05
2023-02-19T00:14:45.122Z,996.14
2023-02-19T00:15:45.149Z,996.20
2023-02-19T00:16:45.104Z,996.21
2023-02-19T00:17:45.084Z,996.25
2023-02-19T00:18:45.085Z,996.24
2023-02-19T00:19:45.065Z,996.20
2023-02-19T00:20:45.066Z,996.23
2023-02-19T00:21:45.055Z,996.21
2023-02-19T00:22:45.026Z,996.19
2023-02-19T00:23:45.040Z,996.14
2023-02-19T00:24:45.010Z,996.12
2023-02-19T00:25:45.012Z,996.12
2023-02-19T00:26:45.074Z,996.04
2023-02-19T00:27:44.977Z,996.06
2023-02-19T00:28:45.001Z,996.08
2023-02-19T00:29:44.958Z,996.06
2023-02-19T00:30:45.018Z,995.94
2023-02-19T00:31:45.038Z,995.91
2023-02-19T00:32:44.929Z,995.87
2023-02-19T00:33:44.940Z,995.82
2023-02-19T00:34:44.903Z,995.83
2023-02-19T00:35:44.904Z,995.86
2023-02-19T00:36:44.901Z,995.88
2023-02-19T00:37:44.880Z,995.83
2023-02-19T00:38:44.889Z,995.76
2023-02-19T00:39:44.868Z,995.80
2023-02-19T00:40:44.845Z,995.78
2023-02-19T00:41:44.839Z,995.69
2023-02-19T00:42:44.847Z,995.65
2023-02-19T00:43:44.836Z,995.64
2023-02-19T00:44:44.833Z,995.62
2023-02-19T00:45:44.798Z,995.63
2023-02-19T00:46:44.782Z,995.66
2023-02-19T00:47:44.769Z,995.69
2023-02-19T00:48:44.782Z,995.62
2023-02-19T00:49:44.759Z,995.64
2023-02-19T00:50:44.765Z,995.67
2023-02-19T00:51:44.747Z,995.67
2023-02-19T00:52:44.727Z,995.60
2023-02-19T00:53:44.746Z,995.67
2023-02-19T00:54:44.700Z,995.69
2023-02-19T00:55:44.692Z,995.75
2023-02-19T00:56:44.693Z,995.69
2023-02-19T00:57:44.680Z,995.62
2023-02-19T00:58:44.683Z,995.65
2023-02-19T00:59:44.666Z,995.61
2023-02-19T01:00:44.633Z,995.58
2023-02-19T01:01:44.890Z,995.61
2023-02-19T01:02:44.614Z,995.69
2023-02-19T01:03:44.640Z,995.64
2023-02-19T01:04:44.606Z,995.65
2023-02-19T01:05:44.606Z,995.58
2023-02-19T01:06:44.595Z,995.57
2023-02-19T01:07:44.563Z,995.63
2023-02-19T01:08:44.577Z,995.68
2023-02-19T01:09:44.547Z,995.58
2023-02-19T01:10:44.525Z,995.54
2023-02-19T01:11:44.523Z,995.57
2023-02-19T01:12:44.512Z,995.64
2023-02-19T01:13:44.514Z,995.61
2023-02-19T01:14:44.490Z,995.63
2023-02-19T01:15:45.338Z,995.58
2023-02-19T01:16:44.469Z,995.66
2023-02-19T01:17:44.467Z,995.55
2023-02-19T01:18:44.464Z,995.61
2023-02-19T01:19:44.435Z,995.58
2023-02-19T01:20:44.437Z,995.59
2023-02-19T01:21:44.429Z,995.58
2023-02-19T01:22:44.395Z,995.57
2023-02-19T01:23:44.428Z,995.52
2023-02-19T01:24:44.377Z,995.50
2023-02-19T01:25:44.367Z,995.42
2023-02-19T01:26:44.357Z,995.41
2023-02-19T01:27:44.348Z,995.44
2023-02-19T01:28:44.368Z,995.44
2023-02-19T01:29:44.330Z,995.44
2023-02-19T01:30:44.310Z,995.42
2023-02-19T01:31:44.418Z,995.36
2023-02-19T01:32:44.310Z,995.39
2023-02-19T01:33:44.301Z,995.45
2023-02-19T01:34:44.269Z,995.43
2023-02-19T01:35:44.258Z,995.40
2023-02-19T01:36:44.252Z,995.45
2023-02-19T01:37:44.252Z,995.30
2023-02-19T01:38:44.279Z,995.28
2023-02-19T01:39:44.221Z,995.25
2023-02-19T01:40:44.211Z,995.24
2023-02-19T01:41:44.200Z,995.17
2023-02-19T01:42:44.199Z,995.28
2023-02-19T01:43:44.195Z,995.26
2023-02-19T01:44:44.168Z,995.22
2023-02-19T01:45:44.158Z,995.19
2023-02-19T01:46:44.170Z,995.24
2023-02-19T01:47:44.137Z,995.23
2023-02-19T01:48:44.147Z,995.20
2023-02-19T01:49:44.120Z,995.20
2023-02-19T01:50:44.107Z,995.21
2023-02-19T01:51:44.088Z,995.22
2023-02-19T01:52:44.087Z,995.19
2023-02-19T01:53:44.088Z,995.23
2023-02-19T01:54:44.067Z,995.17
2023-02-19T01:55:44.054Z,995.14
2023-02-19T01:56:44.050Z,995.08
2023-02-19T01:57:44.039Z,995.11
2023-02-19T01:58:44.051Z,995.20
2023-02-19T01:59:44.020Z,995.25
2023-02-19T02:00:44.021Z,995.21
2023-02-19T02:01:44.031Z,995.17
2023-02-19T02:02:43.993Z,995.16
2023-02-19T02:03:43.983Z,995.19
2023-02-19T02:04:43.963Z,995.21
2023-02-19T02:05:43.945Z,995.22
2023-02-19T02:06:43.953Z,995.16
2023-02-19T02:07:43.925Z,995.13
2023-02-19T02:08:43.943Z,995.14
2023-02-19T02:09:43.909Z,995.12
2023-02-19T02:10:43.895Z,995.14
2023-02-19T02:11:43.890Z,995.17
2023-02-19T02:12:43.877Z,995.14
2023-02-19T02:13:43.876Z,995.15
2023-02-19T02:14:43.857Z,995.13
2023-02-19T02:15:43.862Z,995.11
2023-02-19T02:16:43.847Z,995.08
2023-02-19T02:17:43.826Z,995.18
2023-02-19T02:18:43.830Z,995.12
2023-02-19T02:19:43.800Z,995.08
2023-02-19T02:20:43.803Z,995.04
2023-02-19T02:21:43.786Z,995.11
2023-02-19T02:22:43.773Z,995.05
2023-02-19T02:23:43.769Z,995.04
2023-02-19T02:24:43.781Z,995.07
2023-02-19T02:25:43.741Z,995.05
2023-02-19T02:26:43.725Z,994.97
2023-02-19T02:27:43.716Z,994.96
2023-02-19T02:28:43.705Z,994.99
2023-02-19T02:30:04.724Z,995.00
2023-02-19T02:30:43.701Z,995.00
2023-02-19T02:31:43.741Z,995.04
2023-02-19T02:32:43.670Z,995.02
2023-02-19T02:33:43.647Z,994.98
2023-02-19T02:34:43.668Z,994.96
2023-02-19T02:35:43.627Z,994.98
2023-02-19T02:36:43.619Z,994.95
2023-02-19T02:37:43.617Z,994.87
2023-02-19T02:38:43.611Z,994.90
2023-02-19T02:39:43.621Z,994.95
2023-02-19T02:40:43.586Z,994.93
2023-02-19T02:41:43.580Z,994.89
2023-02-19T02:42:43.560Z,994.86
2023-02-19T02:43:43.568Z,994.91
2023-02-19T02:44:43.562Z,994.81
2023-02-19T02:45:43.557Z,994.88
2023-02-19T02:46:43.520Z,994.90
2023-02-19T02:47:43.511Z,994.85
2023-02-19T02:48:43.501Z,994.86
2023-02-19T02:49:43.502Z,994.86
2023-02-19T02:50:43.472Z,994.77
2023-02-19T02:51:43.461Z,994.82
2023-02-19T02:52:43.472Z,994.80
2023-02-19T02:53:43.447Z,994.81
2023-02-19T02:54:43.454Z,994.84
2023-02-19T02:55:43.424Z,994.77
2023-02-19T02:56:43.413Z,994.79
2023-02-19T02:57:43.393Z,994.80
2023-02-19T02:58:43.396Z,994.80
2023-02-19T02:59:43.402Z,994.81
2023-02-19T03:00:43.383Z,994.83
2023-02-19T03:01:43.359Z,994.83
2023-02-19T03:02:43.346Z,994.80
2023-02-19T03:03:43.335Z,994.87
2023-02-19T03:04:43.345Z,994.83
2023-02-19T03:05:43.314Z,994.76
2023-02-19T03:06:43.312Z,994.76
2023-02-19T03:07:43.301Z,994.74
2023-02-19T03:08:43.278Z,994.78
2023-02-19T03:09:43.285Z,994.73
2023-02-19T03:10:43.278Z,994.69
2023-02-19T03:11:43.305Z,994.69
2023-02-19T03:12:43.249Z,994.66
2023-02-19T03:13:43.219Z,994.68
2023-02-19T03:14:43.239Z,994.72
2023-02-19T03:15:43.209Z,994.70
2023-02-19T03:16:43.267Z,994.67
2023-02-19T03:17:43.181Z,994.68
2023-02-19T03:18:43.173Z,994.66
2023-02-19T03:19:43.190Z,994.64
2023-02-19T03:20:43.156Z,994.60
2023-02-19T03:21:43.158Z,994.60
2023-02-19T03:22:43.130Z,994.59
2023-02-19T03:23:43.138Z,994.65
2023-02-19T03:24:43.132Z,994.69
2023-02-19T03:25:43.097Z,994.60
2023-02-19T03:26:43.097Z,994.65
2023-02-19T03:27:43.072Z,994.71
2023-02-19T03:28:43.076Z,994.67
2023-02-19T03:29:43.073Z,994.71
2023-02-19T03:30:43.042Z,994.68
2023-02-19T03:31:43.117Z,994.69
2023-02-19T03:32:43.025Z,994.58
2023-02-19T03:33:43.012Z,994.61
2023-02-19T03:34:43.049Z,994.62
2023-02-19T03:35:43.000Z,994.60
2023-02-19T03:36:42.996Z,994.63
2023-02-19T03:37:42.974Z,994.59
2023-02-19T03:38:42.967Z,994.60
2023-02-19T03:39:42.965Z,994.59
2023-02-19T03:40:42.937Z,994.64
2023-02-19T03:41:42.924Z,994.69
2023-02-19T03:42:42.915Z,994.83
2023-02-19T03:43:42.905Z,994.80
2023-02-19T03:44:42.928Z,994.81
2023-02-19T03:45:42.914Z,994.79
2023-02-19T03:46:42.882Z,994.79
2023-02-19T03:47:42.874Z,994.84
2023-02-19T03:48:42.851Z,994.82
2023-02-19T03:49:42.859Z,994.86
2023-02-19T03:50:42.839Z,994.82
2023-02-19T03:51:42.819Z,994.86
2023-02-19T03:52:42.824Z,994.88
2023-02-19T03:53:42.800Z,994.82
2023-02-19T03:54:42.811Z,994.91
2023-02-19T03:55:42.782Z,994.92
2023-02-19T03:56:42.778Z,994.96
2023-02-19T03:57:42.764Z,994.96
2023-02-19T03:58:42.754Z,995.04
2023-02-19T03:59:42.755Z,995.09
2023-02-19T04:00:42.738Z,995.12
2023-02-19T04:01:42.717Z,995.06
2023-02-19T04:02:42.716Z,995.11
2023-02-19T04:03:42.697Z,995.03
2023-02-19T04:04:42.780Z,995.21
2023-02-19T04:05:42.688Z,995.19
2023-02-19T04:06:42.668Z,995.02
2023-02-19T04:07:42.662Z,995.07
2023-02-19T04:08:42.650Z,995.15
2023-02-19T04:09:42.670Z,995.08
2023-02-19T04:10:42.636Z,995.01
2023-02-19T04:11:42.611Z,995.04
2023-02-19T04:12:42.611Z,995.03
2023-02-19T04:13:42.592Z,995.07
2023-02-19T04:14:42.615Z,994.97
2023-02-19T04:15:42.582Z,994.99
2023-02-19T04:16:42.655Z,995.11
2023-02-19T04:17:42.554Z,995.08
2023-02-19T04:18:42.544Z,995.06
2023-02-19T04:19:42.557Z,995.11
2023-02-19T04:20:42.528Z,995.11
2023-02-19T04:21:42.515Z,995.06
2023-02-19T04:22:42.509Z,995.02
2023-02-19T04:23:42.499Z,995.18
2023-02-19T04:24:42.506Z,995.19
2023-02-19T04:25:42.468Z,995.14
2023-02-19T04:26:42.470Z,995.20
2023-02-19T04:27:42.447Z,995.14
2023-02-19T04:28:42.436Z,995.05
2023-02-19T04:29:42.447Z,995.11
2023-02-19T04:30:42.530Z,995.11
2023-02-19T04:31:42.426Z,995.16
2023-02-19T04:32:42.396Z,995.17
2023-02-19T04:33:42.393Z,995.21
2023-02-19T04:34:42.397Z,995.17
2023-02-19T04:35:42.363Z,995.20
2023-02-19T04:36:42.354Z,995.21
2023-02-19T04:37:42.336Z,995.21
2023-02-19T04:38:42.327Z,995.35
2023-02-19T04:39:42.338Z,995.30
2023-02-19T04:40:42.315Z,995.35
2023-02-19T04:41:42.296Z,995.40
2023-02-19T04:42:42.288Z,995.32
2023-02-19T04:43:42.276Z,995.36
2023-02-19T04:44:42.287Z,995.26
2023-02-19T04:45:42.249Z,995.35
2023-02-19T04:46:43.222Z,995.38
2023-02-19T04:47:42.236Z,995.41
2023-02-19T04:48:42.225Z,995.35
2023-02-19T04:49:42.227Z,995.47
2023-02-19T04:50:42.229Z,995.47
2023-02-19T04:51:42.204Z,995.48
2023-02-19T04:52:42.180Z,995.44
2023-02-19T04:53:42.281Z,995.43
2023-02-19T04:54:42.181Z,995.44
2023-02-19T04:55:42.147Z,995.50
2023-02-19T04:56:42.141Z,995.52
2023-02-19T04:57:42.124Z,995.57
2023-02-19T04:58:42.111Z,995.44
2023-02-19T04:59:42.118Z,995.45
2023-02-19T05:00:42.103Z,995.56
2023-02-19T05:01:42.105Z,995.50
2023-02-19T05:02:42.079Z,995.51
2023-02-19T05:03:42.077Z,995.49
2023-02-19T05:04:42.099Z,995.47
2023-02-19T05:05:42.050Z,995.48
2023-02-19T05:06:42.033Z,995.44
2023-02-19T05:07:42.015Z,995.49
2023-02-19T05:08:42.017Z,995.48
2023-02-19T05:09:42.012Z,995.54
2023-02-19T05:10:42.025Z,995.49
2023-02-19T05:11:41.977Z,995.48
2023-02-19T05:12:41.974Z,995.51
2023-02-19T05:13:42.006Z,995.50
2023-02-19T05:14:41.949Z,995.49
2023-02-19T05:15:41.970Z,995.63
2023-02-19T05:16:41.927Z,995.68
2023-02-19T05:17:41.919Z,995.66
2023-02-19T05:18:41.908Z,995.69
2023-02-19T05:19:41.891Z,995.71
2023-02-19T05:20:41.901Z,995.72
2023-02-19T05:21:41.872Z,995.75
2023-02-19T05:22:41.864Z,995.73
2023-02-19T05:23:41.853Z,995.73
2023-02-19T05:24:41.851Z,995.74
2023-02-19T05:25:41.853Z,995.77
2023-02-19T05:26:44.053Z,995.77
2023-02-19T05:27:41.809Z,995.78
2023-02-19T05:28:41.811Z,995.77
2023-02-19T05:29:41.798Z,995.85
2023-02-19T05:30:41.793Z,995.91
2023-02-19T05:31:41.877Z,995.87
2023-02-19T05:32:41.762Z,995.96
2023-02-19T05:33:41.755Z,995.99
2023-02-19T05:34:41.736Z,995.93
2023-02-19T05:35:41.741Z,996.01
2023-02-19T05:36:41.717Z,996.05
2023-02-19T05:37:41.703Z,996.01
2023-02-19T05:38:41.700Z,995.98
2023-02-19T05:39:41.677Z,996.12
2023-02-19T05:40:41.685Z,996.09
2023-02-19T05:41:41.675Z,996.05
2023-02-19T05:42:41.655Z,996.09
2023-02-19T05:43:41.638Z,996.00
2023-02-19T05:44:41.627Z,996.07
2023-02-19T05:45:41.637Z,996.13
2023-02-19T05:46:41.637Z,996.22
2023-02-19T05:47:41.596Z,996.14
2023-02-19T05:48:41.594Z,996.13
2023-02-19T05:49:41.568Z,996.11
2023-02-19T05:50:41.599Z,996.17
2023-02-19T05:51:41.547Z,996.13
2023-02-19T05:52:41.551Z,996.15
2023-02-19T05:53:41.546Z,996.21
2023-02-19T05:54:41.532Z,996.23
2023-02-19T05:55:41.530Z,996.19
2023-02-19T05:56:41.551Z,996.20
2023-02-19T05:57:43.575Z,996.20
2023-02-19T05:58:41.490Z,996.20
2023-02-19T05:59:41.474Z,996.20
2023-02-19T06:00:41.472Z,996.12
2023-02-19T06:01:41.452Z,996.29
2023-02-19T06:02:41.472Z,996.21
2023-02-19T06:03:41.461Z,996.28
2023-02-19T06:04:41.438Z,996.30
2023-02-19T06:05:41.426Z,996.33
2023-02-19T06:06:41.399Z,996.41
2023-02-19T06:07:41.385Z,996.32
2023-02-19T06:08:41.382Z,996.38
2023-02-19T06:09:41.366Z,996.42
2023-02-19T06:10:41.375Z,996.50
2023-02-19T06:11:41.347Z,996.44
2023-02-19T06:12:41.327Z,996.49
2023-02-19T06:13:41.329Z,996.53
2023-02-19T06:14:41.311Z,996.51
2023-02-19T06:15:41.318Z,996.46
2023-02-19T06:16:41.292Z,996.57
2023-02-19T06:17:41.289Z,996.56
2023-02-19T06:18:41.347Z,996.50
2023-02-19T06:19:41.259Z,996.57
2023-02-19T06:20:41.277Z,996.55
2023-02-19T06:21:41.240Z,996.55
2023-02-19T06:22:41.228Z,996.54
2023-02-19T06:23:41.223Z,996.56
2023-02-19T06:24:41.201Z,996.64
2023-02-19T06:25:41.213Z,996.62
2023-02-19T06:26:41.182Z,996.67
2023-02-19T06:27:41.137Z,996.66
2023-02-19T06:28:41.110Z,996.68
2023-02-19T06:29:41.105Z,996.75
2023-02-19T06:30:41.105Z,996.70
2023-02-19T06:31:41.169Z,996.68
2023-02-19T06:32:41.078Z,996.76
2023-02-19T06:33:41.118Z,996.82
2023-02-19T06:34:41.058Z,996.77
2023-02-19T06:35:41.059Z,996.78
2023-02-19T06:36:41.080Z,996.77
2023-02-19T06:37:41.093Z,996.76
2023-02-19T06:38:41.023Z,996.81
2023-02-19T06:39:41.007Z,996.82
2023-02-19T06:40:41.008Z,996.84
2023-02-19T06:41:41.002Z,996.85
2023-02-19T06:42:40.962Z,996.89
2023-02-19T06:43:40.959Z,996.84
2023-02-19T06:44:40.942Z,996.90
2023-02-19T06:45:40.955Z,996.77
2023-02-19T06:46:40.959Z,996.90
2023-02-19T06:47:40.916Z,996.83
2023-02-19T06:48:40.913Z,996.84
2023-02-19T06:49:40.895Z,996.90
2023-02-19T06:50:40.896Z,996.88
2023-02-19T06:51:40.876Z,996.93
2023-02-19T06:52:40.856Z,996.93
2023-02-19T06:53:40.857Z,996.85
2023-02-19T06:54:40.852Z,997.01
2023-02-19T06:55:40.850Z,997.04
2023-02-19T06:56:40.819Z,997.07
2023-02-19T06:57:40.810Z,997.14
2023-02-19T06:58:40.798Z,997.14
2023-02-19T06:59:40.800Z,997.11
2023-02-19T07:00:40.820Z,997.09
2023-02-19T07:01:40.772Z,997.14
2023-02-19T07:02:40.750Z,997.24
2023-02-19T07:03:40.750Z,997.14
2023-02-19T07:04:40.729Z,997.19
2023-02-19T07:05:40.739Z,997.23
2023-02-19T07:06:40.715Z,997.28
2023-02-19T07:07:40.699Z,997.19
2023-02-19T07:08:40.690Z,997.26
2023-02-19T07:09:40.679Z,997.23
2023-02-19T07:10:40.691Z,997.29
2023-02-19T07:11:40.662Z,997.34
2023-02-19T07:12:40.661Z,997.30
2023-02-19T07:13:40.640Z,997.27
2023-02-19T07:14:40.622Z,997.32
2023-02-19T07:15:40.629Z,997.30
2023-02-19T07:16:40.644Z,997.25
2023-02-19T07:17:40.600Z,997.30
2023-02-19T07:18:40.581Z,997.27
2023-02-19T07:19:40.620Z,997.32
2023-02-19T07:20:40.584Z,997.36
2023-02-19T07:21:40.550Z,997.38
2023-02-19T07:22:40.531Z,997.44
2023-02-19T07:23:40.537Z,997.35
2023-02-19T07:24:40.514Z,997.42
2023-02-19T07:25:40.531Z,997.39
2023-02-19T07:26:40.495Z,997.43
2023-02-19T07:27:40.484Z,997.49
2023-02-19T07:28:40.473Z,997.48
2023-02-19T07:29:40.464Z,997.62
2023-02-19T07:30:40.551Z,997.61
2023-02-19T07:31:40.566Z,997.61
2023-02-19T07:32:40.425Z,997.66
2023-02-19T07:33:40.426Z,997.59
2023-02-19T07:34:40.410Z,997.72
2023-02-19T07:35:40.427Z,997.70
2023-02-19T07:36:40.400Z,997.72
2023-02-19T07:37:40.377Z,997.73
2023-02-19T07:38:40.366Z,997.81
2023-02-19T07:39:40.360Z,997.82
2023-02-19T07:40:40.369Z,997.83
2023-02-19T07:41:40.340Z,997.85
2023-02-19T07:42:40.329Z,997.89
2023-02-19T07:43:40.332Z,997.89
2023-02-19T07:44:40.304Z,997.93
2023-02-19T07:45:40.353Z,997.92
2023-02-19T07:46:40.283Z,997.91
2023-02-19T07:47:40.290Z,997.91
2023-02-19T07:48:40.268Z,997.93
2023-02-19T07:49:40.254Z,997.97
2023-02-19T07:50:40.265Z,997.89
2023-02-19T07:51:40.247Z,998.01
2023-02-19T07:52:40.225Z,998.07
2023-02-19T07:53:40.217Z,998.04
2023-02-19T07:54:40.218Z,998.08
2023-02-19T07:55:40.215Z,998.21
2023-02-19T07:56:40.178Z,998.20
2023-02-19T07:57:40.179Z,998.18
2023-02-19T07:58:40.164Z,998.15
2023-02-19T07:59:40.150Z,998.19
2023-02-19T08:00:40.154Z,998.17
2023-02-19T08:01:40.145Z,998.23
2023-02-19T08:02:40.121Z,998.29
2023-02-19T08:03:40.199Z,998.17
2023-02-19T08:04:40.097Z,998.30
2023-02-19T08:05:40.114Z,998.32
2023-02-19T08:06:40.072Z,998.44
2023-02-19T08:07:40.063Z,998.36
2023-02-19T08:08:40.068Z,998.45
2023-02-19T08:09:40.045Z,998.43
2023-02-19T08:10:40.038Z,998.44
2023-02-19T08:11:40.046Z,998.51
2023-02-19T08:12:40.013Z,998.54
2023-02-19T08:13:40.004Z,998.50
2023-02-19T08:14:39.991Z,998.51
2023-02-19T08:15:39.994Z,998.52
2023-02-19T08:16:43.245Z,998.54
2023-02-19T08:17:39.964Z,998.55
2023-02-19T08:18:39.953Z,998.56
2023-02-19T08:19:39.943Z,998.57
2023-02-19T08:20:39.936Z,998.63
2023-02-19T08:21:39.955Z,998.58
2023-02-19T08:22:39.905Z,998.63
2023-02-19T08:23:39.904Z,998.64
2023-02-19T08:24:39.877Z,998.59
2023-02-19T08:25:39.881Z,998.66
2023-02-19T08:26:39.877Z,998.72
2023-02-19T08:27:39.858Z,998.57
2023-02-19T08:28:39.849Z,998.72
2023-02-19T08:29:39.846Z,998.72
2023-02-19T08:30:39.920Z,998.69
2023-02-19T08:31:39.995Z,998.77
2023-02-19T08:32:39.799Z,998.78
2023-02-19T08:33:39.800Z,998.75
2023-02-19T08:34:39.780Z,998.77
2023-02-19T08:35:39.770Z,998.82
2023-02-19T08:36:39.778Z,998.79
2023-02-19T08:37:39.749Z,998.78
2023-02-19T08:38:39.731Z,998.81
2023-02-19T08:39:39.730Z,998.86
2023-02-19T08:40:39.719Z,998.78
2023-02-19T08:41:39.724Z,998.86
2023-02-19T08:42:39.695Z,998.82
2023-02-19T08:43:39.691Z,998.84
2023-02-19T08:44:39.672Z,998.87
2023-02-19T08:45:39.683Z,998.91
2023-02-19T08:46:39.672Z,998.82
2023-02-19T08:47:39.640Z,998.80
2023-02-19T08:48:39.639Z,998.82
2023-02-19T08:49:39.632Z,998.83
2023-02-19T08:50:39.602Z,998.76
2023-02-19T08:51:39.621Z,998.80
2023-02-19T08:52:39.582Z,998.81
2023-02-19T08:53:39.588Z,998.80
2023-02-19T08:54:39.562Z,998.85
2023-02-19T08:55:39.552Z,998.85
2023-02-19T08:56:39.568Z,998.81
2023-02-19T08:57:39.535Z,998.96
2023-02-19T08:58:39.524Z,998.94
2023-02-19T08:59:39.513Z,999.00
2023-02-19T09:00:39.494Z,999.07
2023-02-19T09:01:39.542Z,998.98
2023-02-19T09:02:39.491Z,998.96
2023-02-19T09:03:39.481Z,998.89
2023-02-19T09:04:39.457Z,998.95
2023-02-19T09:05:39.465Z,999.07
2023-02-19T09:06:40.128Z,999.15
2023-02-19T09:07:39.427Z,999.37
2023-02-19T09:08:39.409Z,999.48
2023-02-19T09:09:39.416Z,999.50
2023-02-19T09:10:39.384Z,999.58
2023-02-19T09:11:39.405Z,999.59
2023-02-19T09:12:39.368Z,999.60
2023-02-19T09:13:39.370Z,999.55
2023-02-19T09:14:39.361Z,999.55
2023-02-19T09:15:39.407Z,999.57
2023-02-19T09:16:39.348Z,999.64
2023-02-19T09:17:39.319Z,999.62
2023-02-19T09:18:39.307Z,999.67
2023-02-19T09:19:39.309Z,999.77
2023-02-19T09:20:39.293Z,999.77
2023-02-19T09:21:39.306Z,999.72
2023-02-19T09:22:39.266Z,999.69
2023-02-19T09:23:39.279Z,999.74
2023-02-19T09:24:39.247Z,999.65
2023-02-19T09:25:39.239Z,999.65
2023-02-19T09:26:39.263Z,999.74
2023-02-19T09:27:39.218Z,999.76
2023-02-19T09:28:39.214Z,999.79
2023-02-19T09:29:39.207Z,999.87
2023-02-19T09:30:39.187Z,999.91
2023-02-19T09:31:39.341Z,999.89
2023-02-19T09:32:39.160Z,999.92
2023-02-19T09:33:39.154Z,999.91
2023-02-19T09:34:39.139Z,1000.03
2023-02-19T09:35:39.138Z,1000.03
2023-02-19T09:36:39.139Z,1000.04
2023-02-19T09:37:39.114Z,1000.04
2023-02-19T09:38:39.099Z,1000.08
2023-02-19T09:39:39.094Z,1000.14
2023-02-19T09:40:39.093Z,1000.18
2023-02-19T09:41:39.082Z,1000.20
2023-02-19T09:42:39.065Z,1000.17
2023-02-19T09:43:39.052Z,1000.21
2023-02-19T09:44:39.056Z,1000.26
2023-02-19T09:45:39.038Z,1000.26
2023-02-19T09:46:39.059Z,1000.24
2023-02-19T09:47:39.005Z,1000.25
2023-02-19T09:48:39.000Z,1000.27
2023-02-19T09:49:39.007Z,1000.37
2023-02-19T09:50:38.968Z,1000.40
2023-02-19T09:51:38.997Z,1000.42
2023-02-19T09:52:38.948Z,1000.45
2023-02-19T09:53:38.956Z,1000.48
2023-02-19T09:54:38.927Z,1000.50
2023-02-19T09:55:38.959Z,1000.55
2023-02-19T09:56:38.927Z,1000.53
2023-02-19T09:57:38.897Z,1000.55
2023-02-19T09:58:38.896Z,1000.57
2023-02-19T09:59:38.876Z,1000.61
2023-02-19T10:00:38.856Z,1000.56
2023-02-19T10:01:38.976Z,1000.57
2023-02-19T10:02:38.843Z,1000.64
2023-02-19T10:03:38.838Z,1000.60
2023-02-19T10:04:38.819Z,1000.66
2023-02-19T10:05:38.807Z,1000.70
2023-02-19T10:06:38.816Z,1000.70
2023-02-19T10:07:38.789Z,1000.71
2023-02-19T10:08:38.790Z,1000.66
2023-02-19T10:09:38.769Z,1000.70
2023-02-19T10:10:38.758Z,1000.70
2023-02-19T10:11:38.774Z,1000.70
2023-02-19T10:12:38.736Z,1000.70
2023-02-19T10:13:38.734Z,1000.72
2023-02-19T10:14:38.727Z,1000.67
2023-02-19T10:15:38.727Z,1000.73
2023-02-19T10:16:38.709Z,1000.75
2023-02-19T10:17:38.687Z,1000.79
2023-02-19T10:18:38.671Z,1000.84
2023-02-19T10:19:38.670Z,1000.86
2023-02-19T10:20:38.652Z,1000.94
2023-02-19T10:21:38.672Z,1000.92
2023-02-19T10:22:38.642Z,1001.01
2023-02-19T10:23:38.631Z,1000.95
2023-02-19T10:24:38.660Z,1001.01
2023-02-19T10:25:38.593Z,1001.03
2023-02-19T10:26:38.603Z,1001.07
2023-02-19T10:27:38.572Z,1001.03
2023-02-19T10:28:38.563Z,1001.06
2023-02-19T10:29:38.553Z,1001.04
2023-02-19T10:30:38.590Z,1001.02
2023-02-19T10:31:38.633Z,1001.07
2023-02-19T10:32:38.529Z,1001.07
2023-02-19T10:33:38.519Z,1001.08
2023-02-19T10:34:38.507Z,1001.11
2023-02-19T10:35:38.495Z,1001.18
2023-02-19T10:36:38.507Z,1001.20
2023-02-19T10:37:38.481Z,1001.21
2023-02-19T10:38:38.461Z,1001.27
2023-02-19T10:39:38.466Z,1001.25
2023-02-19T10:40:38.440Z,1001.27
2023-02-19T10:41:38.451Z,1001.32
2023-02-19T10:42:38.430Z,1001.37
2023-02-19T10:43:38.411Z,1001.36
2023-02-19T10:44:38.406Z,1001.44
2023-02-19T10:45:38.410Z,1001.43
2023-02-19T10:46:38.466Z,1001.41
2023-02-19T10:47:38.362Z,1001.49
2023-02-19T10:48:38.373Z,1001.52
2023-02-19T10:49:38.384Z,1001.52
2023-02-19T10:50:38.353Z,1001.55
2023-02-19T10:51:38.356Z,1001.60
2023-02-19T10:52:38.317Z,1001.59
2023-02-19T10:53:38.315Z,1001.66
2023-02-19T10:54:38.295Z,1001.64
2023-02-19T10:55:38.291Z,1001.61
2023-02-19T10:56:38.296Z,1001.61
2023-02-19T10:57:38.267Z,1001.63
2023-02-19T10:58:38.257Z,1001.65
2023-02-19T10:59:38.237Z,1001.65
2023-02-19T11:00:38.227Z,1001.73
2023-02-19T11:01:38.254Z,1001.68
2023-02-19T11:02:38.207Z,1001.67
2023-02-19T11:03:38.230Z,1001.71
2023-02-19T11:04:38.264Z,1001.77
2023-02-19T11:05:38.170Z,1001.77
2023-02-19T11:06:38.187Z,1001.82
2023-02-19T11:07:38.157Z,1001.79
2023-02-19T11:08:38.148Z,1001.81
2023-02-19T11:09:38.129Z,1001.80
2023-02-19T11:10:38.129Z,1001.81
2023-02-19T11:11:38.131Z,1001.87
2023-02-19T11:12:38.109Z,1001.88
2023-02-19T11:13:38.130Z,1001.86
2023-02-19T11:14:38.102Z,1001.77
2023-02-19T11:15:38.071Z,1001.80
2023-02-19T11:16:38.088Z,1001.80
2023-02-19T11:17:38.060Z,1001.89
2023-02-19T11:18:38.041Z,1001.86
2023-02-19T11:19:38.021Z,1001.90
2023-02-19T11:20:38.022Z,1001.86
2023-02-19T11:21:38.003Z,1001.84
2023-02-19T11:22:38.014Z,1001.82
2023-02-19T11:23:37.983Z,1001.81
2023-02-19T11:24:37.983Z,1001.86
2023-02-19T11:25:37.963Z,1001.83
2023-02-19T11:26:37.953Z,1001.78
2023-02-19T11:27:37.957Z,1001.83
2023-02-19T11:28:37.942Z,1001.77
2023-02-19T11:29:37.914Z,1001.74
2023-02-19T11:30:37.935Z,1001.71
2023-02-19T11:31:38.018Z,1001.77
2023-02-19T11:32:37.906Z,1001.71
2023-02-19T11:33:37.881Z,1001.87
2023-02-19T11:34:37.896Z,1001.88
2023-02-19T11:35:37.863Z,1001.90
2023-02-19T11:36:37.863Z,1001.88
2023-02-19T11:37:37.857Z,1001.80
2023-02-19T11:38:37.830Z,1001.83
2023-02-19T11:39:37.815Z,1001.80
2023-02-19T11:40:37.845Z,1001.88
2023-02-19T11:41:37.806Z,1001.94
2023-02-19T11:42:37.805Z,1001.86
2023-02-19T11:43:37.791Z,1001.86
2023-02-19T11:44:37.767Z,1001.94
2023-02-19T11:45:37.764Z,1001.93
2023-02-19T11:46:37.776Z,1001.86
2023-02-19T11:47:37.748Z,1001.98
2023-02-19T11:48:37.737Z,1002.01
2023-02-19T11:49:37.718Z,1001.99
2023-02-19T11:50:37.714Z,1002.02
2023-02-19T11:51:37.688Z,1002.02
2023-02-19T11:52:37.713Z,1002.12
2023-02-19T11:53:37.669Z,1002.14
2023-02-19T11:54:37.671Z,1002.08
2023-02-19T11:55:37.655Z,1002.10
2023-02-19T11:56:37.639Z,1002.11
2023-02-19T11:57:37.640Z,1002.11
2023-02-19T11:58:37.620Z,1002.08
2023-02-19T11:59:37.610Z,1002.11
2023-02-19T12:00:37.599Z,1002.09
2023-02-19T12:01:37.675Z,1002.10
2023-02-19T12:02:37.597Z,1002.07
2023-02-19T12:03:37.558Z,1002.03
2023-02-19T12:04:37.952Z,1002.02
2023-02-19T12:05:37.540Z,1002.09
2023-02-19T12:06:37.532Z,1002.07
2023-02-19T12:07:37.545Z,1002.07
2023-02-19T12:08:37.514Z,1002.03
2023-02-19T12:09:37.502Z,1002.04
2023-02-19T12:10:37.511Z,1002.11
2023-02-19T12:11:37.480Z,1002.07
2023-02-19T12:12:37.966Z,1002.08
2023-02-19T12:13:37.458Z,1002.01
2023-02-19T12:14:37.451Z,1002.04
2023-02-19T12:15:37.436Z,1002.05
2023-02-19T12:16:37.445Z,1002.00
2023-02-19T12:17:37.442Z,1001.99
2023-02-19T12:18:37.403Z,1001.95
2023-02-19T12:19:37.398Z,1001.91
2023-02-19T12:20:37.390Z,1001.98
2023-02-19T12:21:37.370Z,1001.95
2023-02-19T12:22:37.383Z,1002.00
2023-02-19T12:23:37.344Z,1001.91